Latest Weather Observations for Taree Airport

IDN60801

Issued at 9:22 pm EDT Sunday 16 December 2018 (issued every 10 minutes, with the page automatically refreshed every 10 minutes)

About weather observations | Map of weather stations | Latest weather observations for NSW | Other Formats
Station Details ID: 060141 Name: TAREE AIRPORT AWS Lat: -31.89 Lon: 152.51 Height: 8.0 m
Data from the previous 72 hours. | See also: Recent months at Taree Airport
Date/Time
EDT
Temp
°C
App
Temp
°C
Dew
Point
°C
Rel
Hum
%
Delta-T
°C
Wind Press
QNH
hPa
Press
MSL
hPa
Rain since
9am
mm
Dir  Spd
km/h
Gust
km/h
Spd
kts
Gust
kts
16/09:00pm 21.4 20.6 19.3 88 1.3 NNE 22 37 12 20 1010.2 1010.1 16.4
16/08:51pm 21.6 21.2 19.3 87 1.5 NNE 20 43 11 23 1010.2 1010.1 16.4
16/08:31pm 21.8 20.1 19.9 89 1.2 NNE 28 46 15 25 1010.1 1010.0 16.4
16/08:30pm 21.8 19.9 20.1 90 1.1 NNE 30 46 16 25 1010.0 1009.9 16.4
16/08:18pm 21.7 20.2 20.2 91 1.0 NE 28 50 15 27 1009.5 1009.4 16.4
16/08:00pm 21.7 19.0 20.5 93 0.8 NE 35 54 19 29 1009.5 1009.4 16.4
16/07:59pm 21.7 19.1 20.7 94 0.6 NE 35 54 19 29 1009.5 1009.4 16.4
16/07:30pm 21.5 18.5 21.3 99 0.1 NE 39 54 21 29 1009.1 1009.0 16.4
16/07:15pm 21.3 17.1 20.5 95 0.5 NE 43 57 23 31 1008.6 1008.5 16.2
16/07:00pm 21.5 16.4 21.3 99 0.1 NE 50 61 27 33 1008.2 1008.1 16.0
16/06:58pm 21.4 16.7 21.4 100 0.0 NE 48 61 26 33 1008.1 1008.0 15.8
16/06:51pm 21.7 17.9 21.7 100 0.0 ENE 44 54 24 29 1008.4 1008.3 15.0
16/06:46pm 21.8 18.6 21.8 100 0.0 NE 41 54 22 29 1008.7 1008.6 15.0
16/06:34pm 21.5 20.5 21.3 99 0.1 NE 28 52 15 28 1009.3 1009.2 14.2
16/06:30pm 21.8 22.8 21.8 100 0.0 NE 19 35 10 19 1009.7 1009.6 13.6
16/06:23pm 21.9 24.5 21.9 100 0.0 NNE 11 19 6 10 1010.4 1010.3 12.0
16/06:16pm 22.0 24.5 21.8 99 0.1 NNE 11 19 6 10 1010.4 1010.3 10.6
16/06:00pm 22.0 23.7 21.7 98 0.2 NE 15 24 8 13 1010.0 1009.9 9.2
16/05:30pm 22.2 23.0 21.4 95 0.5 ENE 19 30 10 16 1009.5 1009.4 7.6
16/05:00pm 22.5 24.4 21.3 93 0.8 NE 13 20 7 11 1009.6 1009.5 5.2
16/04:59pm 22.5 24.3 21.1 92 0.9 NE 13 19 7 10 1009.6 1009.5 5.2
16/04:40pm 22.9 23.5 21.0 89 1.2 NE 19 28 10 15 1009.3 1009.2 4.2
16/04:30pm 23.4 24.3 20.9 86 1.6 NE 17 26 9 14 1009.1 1009.0 2.2
16/04:00pm 23.4 23.3 20.7 85 1.8 NE 22 33 12 18 1008.9 1008.8 2.0
16/03:30pm 24.2 24.4 20.5 80 2.4 NNE 20 32 11 17 1009.0 1008.9 0.2
16/03:00pm 24.9 23.6 20.6 77 2.8 NE 28 44 15 24 1008.7 1008.6 0.2
16/02:30pm 25.8 24.1 20.6 73 3.4 NE 30 39 16 21 1008.8 1008.7 0.2
16/02:02pm 25.8 24.5 20.6 73 3.4 NNE 28 46 15 25 1008.8 1008.7 0.2
16/02:00pm 25.9 24.7 20.9 74 3.3 NNE 28 44 15 24 1008.9 1008.8 0.2
16/01:30pm 26.7 25.9 21.7 74 3.3 NE 28 43 15 23 1009.1 1009.0 0.2
16/01:00pm 25.0 25.5 21.1 79 2.6 NNE 20 30 11 16 1009.7 1009.6 0.2
16/12:59pm 24.8 24.7 20.7 78 2.7 NNE 22 30 12 16 1009.7 1009.6 0.2
16/12:30pm 24.0 27.1 22.1 89 1.3 NNE 9 13 5 7 1009.6 1009.5 0.2
16/12:25pm 24.0 26.4 22.3 90 1.1 NNE 13 24 7 13 1009.6 1009.5 0.2
16/12:00pm 24.0 23.5 21.5 86 1.7 NE 26 33 14 18 1009.7 1009.6 0.0
16/11:30am 25.1 24.6 20.8 77 2.8 NE 24 35 13 19 1010.1 1010.0 0.0
16/11:00am 25.7 25.8 21.1 76 3.0 NNE 22 39 12 21 1010.3 1010.2 0.0
16/10:30am 25.9 26.5 21.1 75 3.2 NNE 19 32 10 17 1010.1 1010.0 0.0
16/10:00am 25.6 26.7 21.9 80 2.5 NNE 19 35 10 19 1010.2 1010.1 0.0
16/09:30am 24.6 26.3 21.7 84 1.9 NE 15 19 8 10 1010.3 1010.2 0.0
16/09:00am 24.1 25.6 21.2 84 1.9 NE 15 22 8 12 1010.1 1010.0 1.4
16/08:30am 24.4 26.2 21.1 82 2.2 NE 13 19 7 10 1010.5 1010.4 1.4
16/08:00am 24.3 24.1 20.6 80 2.4 NE 22 30 12 16 1010.4 1010.3 1.4
16/07:30am 24.3 25.9 20.8 81 2.3 NE 13 19 7 10 1009.9 1009.8 1.4
16/07:00am 24.0 25.3 20.9 83 2.0 NNE 15 20 8 11 1009.9 1009.8 1.4
16/06:30am 23.5 24.7 20.6 84 1.9 NNE 15 22 8 12 1009.1 1009.0 1.4
16/06:00am 23.0 24.0 20.3 85 1.7 NNE 15 24 8 13 1008.5 1008.4 1.4
16/05:30am 22.7 23.7 20.2 86 1.6 NNE 15 22 8 12 1008.2 1008.1 1.4
16/05:00am 22.8 23.8 20.3 86 1.6 NNE 15 22 8 12 1007.7 1007.6 1.4
16/04:30am 22.4 22.9 20.1 87 1.5 NE 17 24 9 13 1007.2 1007.1 1.4
16/04:00am 22.8 24.2 20.3 86 1.6 NE 13 19 7 10 1007.2 1007.1 1.4
16/03:30am 22.3 24.3 20.0 87 1.5 NE 9 13 5 7 1007.5 1007.4 1.4
16/03:00am 22.9 25.0 20.2 85 1.7 NNE 9 13 5 7 1007.2 1007.1 1.4
16/02:30am 23.4 24.4 20.3 83 2.0 NNE 15 19 8 10 1006.7 1006.6 1.4
16/02:00am 23.4 23.1 20.3 83 2.0 NE 22 28 12 15 1006.0 1005.9 1.4
16/01:30am 23.4 24.1 20.5 84 1.9 NE 17 30 9 16 1007.0 1006.9 1.4
16/01:00am 23.5 24.3 20.6 84 1.9 NE 17 26 9 14 1007.4 1007.3 1.4
16/12:30am 23.8 24.1 20.7 83 2.0 NE 20 26 11 14 1007.4 1007.3 1.4
16/12:00am 24.1 25.5 21.0 83 2.0 NE 15 22 8 12 1008.0 1007.9 1.4
 
Date/Time
EDT
Temp
°C
App
Temp
°C
Dew
Point
°C
Rel
Hum
%
Delta-T
°C
Wind Press
QNH
hPa
Press
MSL
hPa
Rain since
9am
mm
Dir  Spd
km/h
Gust
km/h
Spd
kts
Gust
kts
15/11:30pm 24.0 26.1 20.9 83 2.0 N 11 17 6 9 1008.4 1008.3 1.4
15/11:00pm 24.0 24.9 20.9 83 2.0 NNE 17 28 9 15 1007.6 1007.5 1.4
15/10:30pm 24.3 24.2 20.8 81 2.3 NNE 22 39 12 21 1007.6 1007.5 1.4
15/10:00pm 24.4 22.9 20.9 81 2.3 NE 30 50 16 27 1007.4 1007.3 1.4
15/09:59pm 24.4 23.2 20.9 81 2.3 NE 28 50 15 27 1007.4 1007.3 1.4
15/09:30pm 24.2 23.8 20.9 82 2.2 NE 24 32 13 17 1007.5 1007.4 1.4
15/09:00pm 23.8 24.6 21.3 86 1.6 NE 19 30 10 16 1007.1 1007.0 1.2
15/08:30pm 24.3 26.1 21.2 83 2.0 N 13 24 7 13 1007.7 1007.6 1.0
15/08:00pm 24.1 24.2 21.2 84 1.9 NE 22 33 12 18 1006.6 1006.5 1.0
15/07:30pm 24.7 24.3 21.0 80 2.4 NE 24 37 13 20 1006.4 1006.3 0.4
15/07:00pm 24.7 26.3 21.4 82 2.2 NNE 15 22 8 12 1006.6 1006.5 0.4
15/06:30pm 24.3 27.6 21.8 86 1.7 WNW 7 9 4 5 1006.3 1006.2 0.4
15/06:00pm 25.1 23.8 21.4 80 2.5 NE 30 41 16 22 1005.4 1005.3 0.0
15/05:30pm 25.1 25.1 21.0 78 2.7 NE 22 33 12 18 1005.2 1005.1 0.0
15/05:00pm 25.2 23.5 21.3 79 2.6 ENE 32 41 17 22 1004.0 1003.9 0.0
15/04:30pm 25.7 23.8 21.4 77 2.8 ENE 33 41 18 22 1004.4 1004.3 0.0
15/04:00pm 26.6 23.7 20.9 71 3.8 ENE 37 52 20 28 1003.6 1003.5 0.0
15/03:30pm 27.8 23.6 20.9 66 4.6 ENE 44 56 24 30 1003.6 1003.5 0.0
15/03:00pm 28.6 23.9 21.4 65 4.8 ENE 48 61 26 33 1004.3 1004.2 0.0
15/02:41pm 29.1 25.2 21.1 62 5.3 NE 43 61 23 33 1004.1 1004.0 0.0
15/02:30pm 28.8 25.3 21.8 66 4.7 NE 43 57 23 31 1004.5 1004.4 0.0
15/02:00pm 29.4 26.4 22.1 65 4.9 ENE 41 54 22 29 1004.5 1004.4 0.0
15/01:30pm 30.1 28.1 22.5 63 5.2 ENE 37 50 20 27 1004.8 1004.7 0.0
15/01:00pm 30.7 29.1 22.6 62 5.5 ENE 35 48 19 26 1005.5 1005.4 0.0
15/12:30pm 29.7 28.5 21.6 61 5.4 ENE 30 41 16 22 1006.0 1005.9 0.0
15/12:00pm 30.8 30.2 18.8 48 7.8 N 20 33 11 18 1006.3 1006.2 0.0
15/11:30am 30.4 29.2 20.0 53 6.8 NNE 26 43 14 23 1006.8 1006.7 0.0
15/11:00am 29.3 30.3 21.0 61 5.5 N 17 30 9 16 1007.0 1006.9 0.0
15/10:30am 28.6 29.0 20.6 62 5.3 NNE 19 28 10 15 1007.1 1007.0 0.0
15/10:00am 27.4 29.3 21.4 70 4.0 NNE 13 26 7 14 1007.3 1007.2 0.0
15/09:30am 26.7 28.9 21.2 72 3.6 N 11 15 6 8 1007.4 1007.3 0.0
15/09:00am 25.9 27.9 20.7 73 3.4 N 11 19 6 10 1007.5 1007.4 1.2
15/08:30am 25.9 27.2 21.6 77 2.9 NE 17 20 9 11 1007.3 1007.2 1.2
15/08:00am 25.1 25.5 20.6 76 2.9 NE 19 28 10 15 1007.2 1007.1 1.2
15/07:30am 24.8 26.1 20.9 79 2.6 NNE 15 20 8 11 1006.7 1006.6 1.2
15/07:00am 24.5 25.1 21.0 81 2.3 NE 19 26 10 14 1006.2 1006.1 1.2
15/06:30am 23.5 25.0 20.6 84 1.9 NNE 13 19 7 10 1006.0 1005.9 1.2
15/06:00am 23.1 24.0 20.8 87 1.5 NE 17 24 9 13 1005.7 1005.6 1.2
15/05:30am 22.9 23.3 20.6 87 1.5 NE 19 24 10 13 1005.2 1005.1 1.2
15/05:00am 23.4 24.2 20.7 85 1.8 ENE 17 26 9 14 1005.0 1004.9 1.2
15/04:30am 23.7 25.0 20.8 84 1.9 ENE 15 20 8 11 1004.9 1004.8 1.2
15/04:00am 23.3 24.9 20.8 86 1.6 ENE 13 19 7 10 1004.6 1004.5 1.2
15/03:30am 23.7 25.4 21.0 85 1.8 NNE 13 26 7 14 1004.5 1004.4 1.2
15/03:00am 23.4 25.2 21.1 87 1.5 NE 13 19 7 10 1004.5 1004.4 1.2
15/02:30am 23.6 25.4 21.1 86 1.6 ENE 13 20 7 11 1004.7 1004.6 1.2
15/02:02am 23.7 26.8 21.4 87 1.5 NE 7 17 4 9 1004.6 1004.5 1.2
15/02:00am 23.6 26.9 21.5 88 1.4 NE 6 9 3 5 1004.6 1004.5 1.2
15/01:30am 23.8 26.2 21.5 87 1.5 NNE 11 17 6 9 1005.2 1005.1 1.2
15/01:00am 24.0 26.4 21.5 86 1.7 NNE 11 17 6 9 1005.0 1004.9 1.2
15/12:41am 24.0 26.8 21.5 86 1.7 NNE 9 15 5 8 1005.0 1004.9 1.2
15/12:30am 24.0 26.8 21.5 86 1.7 NNE 9 17 5 9 1005.0 1004.9 1.2
15/12:00am 23.9 25.9 21.6 87 1.5 NE 13 24 7 13 1004.9 1004.8 1.2
 
Date/Time
EDT
Temp
°C
App
Temp
°C
Dew
Point
°C
Rel
Hum
%
Delta-T
°C
Wind Press
QNH
hPa
Press
MSL
hPa
Rain since
9am
mm
Dir  Spd
km/h
Gust
km/h
Spd
kts
Gust
kts
14/11:30pm 24.1 25.5 21.8 87 1.5 NE 17 26 9 14 1005.1 1005.0 1.2
14/11:00pm 22.8 25.3 21.8 94 0.7 NE 11 22 6 12 1005.4 1005.3 1.2
14/10:30pm 21.3 24.1 20.8 97 0.3 S 7 9 4 5 1005.8 1005.7 1.2
14/10:00pm 21.2 24.0 20.5 96 0.5 WNW 6 7 3 4 1005.6 1005.5 1.2
14/09:30pm 21.2 23.7 20.2 94 0.6 SSW 7 9 4 5 1005.4 1005.3 1.2
14/09:00pm 21.1 22.9 20.3 95 0.5 WNW 11 17 6 9 1005.1 1005.0 1.2
14/08:30pm 21.2 24.5 20.0 93 0.8 W 2 9 1 5 1004.3 1004.2 1.0
14/08:00pm 21.1 22.9 19.6 91 1.0 W 9 13 5 7 1004.0 1003.9 1.0
14/07:30pm 21.4 23.2 19.5 89 1.2 E 9 13 5 7 1003.2 1003.1 1.0
14/07:00pm 22.0 23.6 18.2 79 2.4 SSW 7 17 4 9 1003.4 1003.3 0.2
14/06:30pm 22.4 21.2 18.4 78 2.5 SW 22 39 12 21 1002.9 1002.8 0.0
14/06:01pm 24.9 24.4 19.1 70 3.7 NNW 20 52 11 28 1001.1 1001.0 0.0
14/06:00pm 25.6 25.7 19.9 70 3.7 N 19 52 10 28 1001.1 1001.0 0.0
14/05:30pm 26.4 27.7 20.9 72 3.6 E 15 19 8 10 1000.0 999.9 0.0
14/05:00pm 26.5 25.4 20.3 68 4.1 ENE 26 35 14 19 999.5 999.4 0.0
14/04:30pm 28.6 26.5 19.8 59 5.7 NE 30 39 16 21 999.9 999.8 0.0
14/04:00pm 30.9 28.5 19.9 52 7.3 ENE 32 39 17 21 999.4 999.3 0.0
14/03:30pm 30.6 29.6 20.5 54 6.7 ENE 26 30 14 16 999.8 999.7 0.0
14/03:00pm 31.0 29.2 18.7 48 8.0 ENE 26 35 14 19 999.9 999.8 0.0
14/02:30pm 31.5 29.8 19.8 49 7.7 ENE 28 37 15 20 999.9 999.8 0.0
14/02:00pm 30.4 30.6 19.4 51 7.2 E 17 30 9 16 1000.3 1000.2 0.0
14/01:30pm 29.6 29.5 19.6 55 6.5 E 19 28 10 15 1000.6 1000.5 0.0
14/01:00pm 29.3 28.3 19.6 56 6.4 E 24 32 13 17 1001.0 1000.9 0.0
14/12:30pm 29.5 29.5 20.1 57 6.2 E 20 28 11 15 1001.2 1001.1 0.0
14/12:00pm 30.5 31.1 21.0 57 6.4 ENE 19 26 10 14 1001.6 1001.5 0.0
14/11:30am 29.5 30.0 20.1 57 6.2 E 17 24 9 13 1001.6 1001.5 0.0
14/11:00am 29.8 31.3 20.6 57 6.1 E 13 24 7 13 1001.6 1001.5 0.0
14/10:30am 28.7 28.7 18.2 53 6.7 NE 15 24 8 13 1001.8 1001.7 0.0
14/10:00am 28.9 28.9 18.9 54 6.5 ENE 17 20 9 11 1001.9 1001.8 0.0
14/09:30am 28.1 28.6 19.3 58 5.7 NE 15 20 8 11 1002.1 1002.0 0.0
14/09:00am 27.6 28.2 19.4 61 5.3 NE 15 20 8 11 1001.9 1001.8 0.0
14/08:30am 26.0 26.5 19.2 66 4.4 NE 15 19 8 10 1001.8 1001.7 0.0
14/08:00am 24.6 26.6 19.9 75 3.0 NNE 9 17 5 9 1002.2 1002.1 0.0
14/07:30am 23.1 24.7 19.1 78 2.5 NE 9 11 5 6 1002.0 1001.9 0.0
14/07:00am 22.0 24.0 19.2 84 1.8 NE 7 9 4 5 1001.7 1001.6 0.0
14/06:30am 20.7 23.9 18.8 89 1.2 CALM 0 0 0 0 1001.2 1001.1 0.0
14/06:00am 19.7 21.8 18.2 91 0.9 SSE 4 9 2 5 1000.7 1000.6 0.0
14/05:30am 20.0 23.0 18.5 91 0.9 CALM 0 0 0 0 1000.2 1000.1 0.0
14/05:00am 20.3 22.2 18.6 90 1.1 NE 6 9 3 5 999.8 999.7 0.0
14/04:30am 19.6 20.4 18.1 91 0.9 ENE 11 13 6 7 999.4 999.3 0.0
14/04:00am 19.7 20.4 18.0 90 1.1 NE 11 13 6 7 999.4 999.3 0.0
14/03:30am 19.8 20.2 18.1 90 1.1 ENE 13 13 7 7 999.4 999.3 0.0
14/03:00am 19.8 21.5 18.1 90 1.1 E 6 11 3 6 999.5 999.4 0.0
14/02:30am 20.3 21.6 18.4 89 1.2 E 9 11 5 6 999.5 999.4 0.0
14/02:00am 20.9 22.8 18.5 86 1.5 N 6 9 3 5 999.6 999.5 0.0
14/01:30am 20.8 22.7 18.9 89 1.2 NNE 7 11 4 6 999.4 999.3 0.0
14/01:00am 21.8 24.1 19.4 86 1.5 WNW 6 7 3 4 999.8 999.7 0.0
14/12:30am 22.2 25.5 19.0 82 2.0 CALM 0 0 0 0 1000.0 999.9 0.0
14/12:00am 22.7 24.7 19.1 80 2.3 NNE 7 11 4 6 1000.3 1000.2 0.0
 
Date/Time
EDT
Temp
°C
App
Temp
°C
Dew
Point
°C
Rel
Hum
%
Delta-T
°C
Wind Press
QNH
hPa
Press
MSL
hPa
Rain since
9am
mm
Dir  Spd
km/h
Gust
km/h
Spd
kts
Gust
kts
13/11:30pm 22.7 24.1 19.5 82 2.0 NE 11 13 6 7 1000.9 1000.8 0.0
13/11:00pm 23.1 25.0 19.7 81 2.2 NNE 9 15 5 8 1001.6 1001.5 0.0
13/10:30pm 23.3 24.1 19.9 81 2.2 NNE 15 22 8 12 1001.7 1001.6 0.0
13/10:00pm 23.8 24.5 19.7 78 2.6 N 15 22 8 12 1001.3 1001.2 0.0
13/09:30pm 23.2 24.9 20.2 83 1.9 NNE 11 15 6 8 1001.3 1001.2 0.0

Other Formats:

Comma delimited format used in spreadsheet applications
http://www.bom.gov.au/fwo/IDN60801/IDN60801.95784.axf

JavaScript Object Notation format (JSON) in row-major order
http://www.bom.gov.au/fwo/IDN60801/IDN60801.95784.json